sensor_id;sensor_type;location;lat;lon;timestamp;P1;durP1;ratioP1;P2;durP2;ratioP2
27800;SDS011;15181;49.112;11.930;2022-07-30T00:00:06;6.85;;;6.25;;
27800;SDS011;15181;49.112;11.930;2022-07-30T00:02:34;6.90;;;6.10;;
27800;SDS011;15181;49.112;11.930;2022-07-30T00:05:02;6.93;;;6.25;;
27800;SDS011;15181;49.112;11.930;2022-07-30T00:07:30;7.10;;;6.10;;
27800;SDS011;15181;49.112;11.930;2022-07-30T00:09:56;6.75;;;6.15;;
27800;SDS011;15181;49.112;11.930;2022-07-30T00:12:23;6.75;;;6.15;;
27800;SDS011;15181;49.112;11.930;2022-07-30T00:14:50;7.03;;;6.32;;
27800;SDS011;15181;49.112;11.930;2022-07-30T00:17:17;6.47;;;5.88;;
27800;SDS011;15181;49.112;11.930;2022-07-30T00:19:44;7.00;;;6.40;;
27800;SDS011;15181;49.112;11.930;2022-07-30T00:22:12;6.78;;;6.10;;
27800;SDS011;15181;49.112;11.930;2022-07-30T00:24:39;6.88;;;6.28;;
27800;SDS011;15181;49.112;11.930;2022-07-30T00:27:06;7.15;;;6.45;;
27800;SDS011;15181;49.112;11.930;2022-07-30T00:29:33;6.60;;;6.05;;
27800;SDS011;15181;49.112;11.930;2022-07-30T00:31:59;6.90;;;6.18;;
27800;SDS011;15181;49.112;11.930;2022-07-30T00:34:26;6.60;;;5.93;;
27800;SDS011;15181;49.112;11.930;2022-07-30T00:36:54;6.10;;;5.60;;
27800;SDS011;15181;49.112;11.930;2022-07-30T00:39:23;6.75;;;6.18;;
27800;SDS011;15181;49.112;11.930;2022-07-30T00:41:52;7.30;;;6.15;;
27800;SDS011;15181;49.112;11.930;2022-07-30T00:44:20;7.10;;;6.50;;
27800;SDS011;15181;49.112;11.930;2022-07-30T00:46:47;7.00;;;6.40;;
27800;SDS011;15181;49.112;11.930;2022-07-30T00:49:14;7.22;;;6.35;;
27800;SDS011;15181;49.112;11.930;2022-07-30T00:51:42;6.85;;;6.25;;
27800;SDS011;15181;49.112;11.930;2022-07-30T00:54:09;6.55;;;5.95;;
27800;SDS011;15181;49.112;11.930;2022-07-30T00:56:37;6.80;;;6.20;;
27800;SDS011;15181;49.112;11.930;2022-07-30T00:59:04;6.80;;;6.20;;
27800;SDS011;15181;49.112;11.930;2022-07-30T01:01:31;6.88;;;6.25;;
27800;SDS011;15181;49.112;11.930;2022-07-30T01:03:58;6.80;;;6.20;;
27800;SDS011;15181;49.112;11.930;2022-07-30T01:06:26;7.38;;;6.78;;
27800;SDS011;15181;49.112;11.930;2022-07-30T01:08:53;7.50;;;6.68;;
27800;SDS011;15181;49.112;11.930;2022-07-30T01:11:20;6.80;;;6.20;;
27800;SDS011;15181;49.112;11.930;2022-07-30T01:13:50;7.30;;;6.70;;
27800;SDS011;15181;49.112;11.930;2022-07-30T01:16:17;8.18;;;7.38;;
27800;SDS011;15181;49.112;11.930;2022-07-30T01:18:44;7.68;;;7.00;;
27800;SDS011;15181;49.112;11.930;2022-07-30T01:21:30;7.40;;;6.80;;
27800;SDS011;15181;49.112;11.930;2022-07-30T01:24:04;7.30;;;6.70;;
27800;SDS011;15181;49.112;11.930;2022-07-30T01:26:38;8.10;;;7.30;;
27800;SDS011;15181;49.112;11.930;2022-07-30T01:29:06;7.57;;;6.88;;
27800;SDS011;15181;49.112;11.930;2022-07-30T01:31:34;7.75;;;6.90;;
27800;SDS011;15181;49.112;11.930;2022-07-30T01:34:02;7.70;;;6.82;;
27800;SDS011;15181;49.112;11.930;2022-07-30T01:36:30;7.70;;;7.00;;
27800;SDS011;15181;49.112;11.930;2022-07-30T01:38:58;7.38;;;6.78;;
27800;SDS011;15181;49.112;11.930;2022-07-30T01:41:26;7.50;;;6.80;;
27800;SDS011;15181;49.112;11.930;2022-07-30T01:43:55;7.93;;;7.22;;
27800;SDS011;15181;49.112;11.930;2022-07-30T01:46:24;8.00;;;7.30;;
27800;SDS011;15181;49.112;11.930;2022-07-30T01:48:52;7.88;;;7.18;;
27800;SDS011;15181;49.112;11.930;2022-07-30T01:51:19;8.32;;;7.63;;
27800;SDS011;15181;49.112;11.930;2022-07-30T01:53:46;8.60;;;7.82;;
27800;SDS011;15181;49.112;11.930;2022-07-30T01:56:16;11.00;;;7.53;;
27800;SDS011;15181;49.112;11.930;2022-07-30T01:58:46;8.20;;;7.40;;
27800;SDS011;15181;49.112;11.930;2022-07-30T02:01:16;8.07;;;7.38;;
27800;SDS011;15181;49.112;11.930;2022-07-30T02:03:43;8.48;;;7.60;;
27800;SDS011;15181;49.112;11.930;2022-07-30T02:06:11;8.13;;;7.38;;
27800;SDS011;15181;49.112;11.930;2022-07-30T02:08:43;8.25;;;7.45;;
27800;SDS011;15181;49.112;11.930;2022-07-30T02:11:15;7.78;;;7.00;;
27800;SDS011;15181;49.112;11.930;2022-07-30T02:14:05;7.00;;;6.30;;
27800;SDS011;15181;49.112;11.930;2022-07-30T02:16:38;7.38;;;6.78;;
27800;SDS011;15181;49.112;11.930;2022-07-30T02:19:08;8.52;;;7.72;;
27800;SDS011;15181;49.112;11.930;2022-07-30T02:21:38;9.13;;;8.23;;
27800;SDS011;15181;49.112;11.930;2022-07-30T02:24:11;8.68;;;7.75;;
27800;SDS011;15181;49.112;11.930;2022-07-30T02:26:40;8.52;;;7.72;;
27800;SDS011;15181;49.112;11.930;2022-07-30T02:29:08;10.35;;;9.35;;
27800;SDS011;15181;49.112;11.930;2022-07-30T02:31:35;9.90;;;8.98;;
27800;SDS011;15181;49.112;11.930;2022-07-30T02:34:05;10.20;;;9.20;;
27800;SDS011;15181;49.112;11.930;2022-07-30T02:36:34;10.98;;;8.43;;
27800;SDS011;15181;49.112;11.930;2022-07-30T02:39:02;10.75;;;9.55;;
27800;SDS011;15181;49.112;11.930;2022-07-30T02:41:30;10.60;;;9.63;;
27800;SDS011;15181;49.112;11.930;2022-07-30T02:43:58;11.07;;;9.70;;
27800;SDS011;15181;49.112;11.930;2022-07-30T02:46:26;12.05;;;10.85;;
27800;SDS011;15181;49.112;11.930;2022-07-30T02:48:55;11.35;;;10.25;;
27800;SDS011;15181;49.112;11.930;2022-07-30T02:51:23;11.48;;;10.45;;
27800;SDS011;15181;49.112;11.930;2022-07-30T02:53:52;11.15;;;10.15;;
27800;SDS011;15181;49.112;11.930;2022-07-30T02:56:20;11.35;;;10.40;;
27800;SDS011;15181;49.112;11.930;2022-07-30T02:58:48;10.15;;;9.15;;
27800;SDS011;15181;49.112;11.930;2022-07-30T03:01:17;11.43;;;10.52;;
27800;SDS011;15181;49.112;11.930;2022-07-30T03:03:46;11.45;;;10.45;;
27800;SDS011;15181;49.112;11.930;2022-07-30T03:06:16;11.55;;;10.55;;
27800;SDS011;15181;49.112;11.930;2022-07-30T03:08:44;12.23;;;11.13;;
27800;SDS011;15181;49.112;11.930;2022-07-30T03:11:12;12.38;;;11.38;;
27800;SDS011;15181;49.112;11.930;2022-07-30T03:13:41;12.77;;;11.70;;
27800;SDS011;15181;49.112;11.930;2022-07-30T03:16:09;13.60;;;12.50;;
27800;SDS011;15181;49.112;11.930;2022-07-30T03:18:37;12.50;;;11.40;;
27800;SDS011;15181;49.112;11.930;2022-07-30T03:21:08;12.55;;;11.40;;
27800;SDS011;15181;49.112;11.930;2022-07-30T03:23:38;13.25;;;11.95;;
27800;SDS011;15181;49.112;11.930;2022-07-30T03:26:06;13.50;;;12.27;;
27800;SDS011;15181;49.112;11.930;2022-07-30T03:28:36;12.85;;;11.57;;
27800;SDS011;15181;49.112;11.930;2022-07-30T03:31:04;13.05;;;11.95;;
27800;SDS011;15181;49.112;11.930;2022-07-30T03:33:32;12.98;;;11.77;;
27800;SDS011;15181;49.112;11.930;2022-07-30T03:36:00;12.27;;;11.07;;
27800;SDS011;15181;49.112;11.930;2022-07-30T03:38:28;12.38;;;11.23;;
27800;SDS011;15181;49.112;11.930;2022-07-30T03:40:57;14.05;;;12.77;;
27800;SDS011;15181;49.112;11.930;2022-07-30T03:43:25;13.85;;;12.65;;
27800;SDS011;15181;49.112;11.930;2022-07-30T03:45:52;12.95;;;11.85;;
27800;SDS011;15181;49.112;11.930;2022-07-30T03:48:21;13.65;;;12.20;;
27800;SDS011;15181;49.112;11.930;2022-07-30T03:50:49;11.80;;;10.63;;
27800;SDS011;15181;49.112;11.930;2022-07-30T03:53:17;13.98;;;12.68;;
27800;SDS011;15181;49.112;11.930;2022-07-30T03:55:48;13.60;;;12.35;;
27800;SDS011;15181;49.112;11.930;2022-07-30T03:58:16;12.88;;;11.70;;
27800;SDS011;15181;49.112;11.930;2022-07-30T04:00:45;14.40;;;12.85;;
27800;SDS011;15181;49.112;11.930;2022-07-30T04:03:13;13.68;;;12.30;;
27800;SDS011;15181;49.112;11.930;2022-07-30T04:05:49;12.63;;;11.48;;
27800;SDS011;15181;49.112;11.930;2022-07-30T04:08:16;12.73;;;11.63;;
27800;SDS011;15181;49.112;11.930;2022-07-30T04:10:43;13.43;;;12.05;;
27800;SDS011;15181;49.112;11.930;2022-07-30T04:13:10;13.10;;;11.98;;
27800;SDS011;15181;49.112;11.930;2022-07-30T04:15:40;13.13;;;11.88;;
27800;SDS011;15181;49.112;11.930;2022-07-30T04:18:10;13.35;;;12.15;;
27800;SDS011;15181;49.112;11.930;2022-07-30T04:20:42;12.50;;;11.30;;
27800;SDS011;15181;49.112;11.930;2022-07-30T04:23:11;12.45;;;11.32;;
27800;SDS011;15181;49.112;11.930;2022-07-30T04:25:39;13.63;;;12.43;;
27800;SDS011;15181;49.112;11.930;2022-07-30T04:28:08;13.57;;;12.25;;
27800;SDS011;15181;49.112;11.930;2022-07-30T04:30:35;13.10;;;11.85;;
27800;SDS011;15181;49.112;11.930;2022-07-30T04:33:04;13.45;;;12.25;;
27800;SDS011;15181;49.112;11.930;2022-07-30T04:35:34;12.48;;;11.38;;
27800;SDS011;15181;49.112;11.930;2022-07-30T04:38:01;12.93;;;11.73;;
27800;SDS011;15181;49.112;11.930;2022-07-30T04:40:28;13.98;;;12.68;;
27800;SDS011;15181;49.112;11.930;2022-07-30T04:42:55;12.35;;;11.02;;
27800;SDS011;15181;49.112;11.930;2022-07-30T04:45:24;12.02;;;10.82;;
27800;SDS011;15181;49.112;11.930;2022-07-30T04:47:51;13.40;;;12.20;;
27800;SDS011;15181;49.112;11.930;2022-07-30T04:50:20;13.13;;;11.88;;
27800;SDS011;15181;49.112;11.930;2022-07-30T04:52:49;12.63;;;11.43;;
27800;SDS011;15181;49.112;11.930;2022-07-30T04:55:18;13.57;;;12.35;;
27800;SDS011;15181;49.112;11.930;2022-07-30T04:57:46;13.15;;;11.95;;
27800;SDS011;15181;49.112;11.930;2022-07-30T05:00:15;11.77;;;10.77;;
27800;SDS011;15181;49.112;11.930;2022-07-30T05:02:43;11.02;;;10.13;;
27800;SDS011;15181;49.112;11.930;2022-07-30T05:05:12;11.18;;;10.18;;
27800;SDS011;15181;49.112;11.930;2022-07-30T05:07:42;16.88;;;15.35;;
27800;SDS011;15181;49.112;11.930;2022-07-30T05:10:11;12.35;;;11.25;;
27800;SDS011;15181;49.112;11.930;2022-07-30T05:12:39;12.10;;;10.93;;
27800;SDS011;15181;49.112;11.930;2022-07-30T05:15:06;11.93;;;10.80;;
27800;SDS011;15181;49.112;11.930;2022-07-30T05:17:34;10.90;;;10.00;;
27800;SDS011;15181;49.112;11.930;2022-07-30T05:20:02;11.95;;;10.95;;
27800;SDS011;15181;49.112;11.930;2022-07-30T05:22:30;13.32;;;12.10;;
27800;SDS011;15181;49.112;11.930;2022-07-30T05:24:58;12.20;;;11.05;;
27800;SDS011;15181;49.112;11.930;2022-07-30T05:27:25;13.02;;;11.93;;
27800;SDS011;15181;49.112;11.930;2022-07-30T05:29:52;12.77;;;11.68;;
27800;SDS011;15181;49.112;11.930;2022-07-30T05:32:19;12.82;;;11.73;;
27800;SDS011;15181;49.112;11.930;2022-07-30T05:34:46;14.00;;;12.70;;
27800;SDS011;15181;49.112;11.930;2022-07-30T05:37:13;13.20;;;12.00;;
27800;SDS011;15181;49.112;11.930;2022-07-30T05:39:40;13.05;;;11.85;;
27800;SDS011;15181;49.112;11.930;2022-07-30T05:42:09;15.25;;;13.95;;
27800;SDS011;15181;49.112;11.930;2022-07-30T05:44:35;14.88;;;13.57;;
27800;SDS011;15181;49.112;11.930;2022-07-30T05:47:02;15.77;;;14.38;;
27800;SDS011;15181;49.112;11.930;2022-07-30T05:49:29;13.77;;;12.40;;
27800;SDS011;15181;49.112;11.930;2022-07-30T05:51:56;14.80;;;13.00;;
27800;SDS011;15181;49.112;11.930;2022-07-30T05:54:23;15.80;;;14.30;;
27800;SDS011;15181;49.112;11.930;2022-07-30T05:56:50;14.98;;;13.57;;
27800;SDS011;15181;49.112;11.930;2022-07-30T05:59:18;14.50;;;13.10;;
27800;SDS011;15181;49.112;11.930;2022-07-30T06:01:45;12.65;;;11.45;;
27800;SDS011;15181;49.112;11.930;2022-07-30T06:04:12;13.32;;;12.13;;
27800;SDS011;15181;49.112;11.930;2022-07-30T06:06:39;13.88;;;12.65;;
27800;SDS011;15181;49.112;11.930;2022-07-30T06:09:06;12.30;;;11.30;;
27800;SDS011;15181;49.112;11.930;2022-07-30T06:11:33;11.95;;;10.95;;
27800;SDS011;15181;49.112;11.930;2022-07-30T06:14:00;12.88;;;11.68;;
27800;SDS011;15181;49.112;11.930;2022-07-30T06:16:28;14.57;;;13.27;;
27800;SDS011;15181;49.112;11.930;2022-07-30T06:18:55;13.57;;;12.38;;
27800;SDS011;15181;49.112;11.930;2022-07-30T06:21:22;14.48;;;13.27;;
27800;SDS011;15181;49.112;11.930;2022-07-30T06:23:49;14.05;;;12.80;;
27800;SDS011;15181;49.112;11.930;2022-07-30T06:26:16;13.63;;;12.32;;
27800;SDS011;15181;49.112;11.930;2022-07-30T06:28:42;13.82;;;12.63;;
27800;SDS011;15181;49.112;11.930;2022-07-30T06:31:09;12.00;;;10.98;;
27800;SDS011;15181;49.112;11.930;2022-07-30T06:33:38;13.65;;;12.35;;
27800;SDS011;15181;49.112;11.930;2022-07-30T06:36:05;14.88;;;13.35;;
27800;SDS011;15181;49.112;11.930;2022-07-30T06:38:32;15.40;;;14.00;;
27800;SDS011;15181;49.112;11.930;2022-07-30T06:40:59;11.85;;;10.85;;
27800;SDS011;15181;49.112;11.930;2022-07-30T06:43:26;13.10;;;12.02;;
27800;SDS011;15181;49.112;11.930;2022-07-30T06:45:53;12.07;;;10.98;;
27800;SDS011;15181;49.112;11.930;2022-07-30T06:48:20;14.07;;;12.27;;
27800;SDS011;15181;49.112;11.930;2022-07-30T06:50:50;12.90;;;11.75;;
27800;SDS011;15181;49.112;11.930;2022-07-30T06:53:17;12.80;;;11.57;;
27800;SDS011;15181;49.112;11.930;2022-07-30T06:55:44;12.45;;;11.35;;
27800;SDS011;15181;49.112;11.930;2022-07-30T06:58:11;13.95;;;12.75;;
27800;SDS011;15181;49.112;11.930;2022-07-30T07:00:38;12.68;;;11.55;;
27800;SDS011;15181;49.112;11.930;2022-07-30T07:03:07;12.55;;;11.35;;
27800;SDS011;15181;49.112;11.930;2022-07-30T07:05:33;12.93;;;11.73;;
27800;SDS011;15181;49.112;11.930;2022-07-30T07:08:02;13.15;;;12.00;;
27800;SDS011;15181;49.112;11.930;2022-07-30T07:10:29;12.80;;;11.52;;
27800;SDS011;15181;49.112;11.930;2022-07-30T07:12:56;12.85;;;11.70;;
27800;SDS011;15181;49.112;11.930;2022-07-30T07:15:24;11.48;;;10.38;;
27800;SDS011;15181;49.112;11.930;2022-07-30T07:17:52;10.85;;;9.95;;
27800;SDS011;15181;49.112;11.930;2022-07-30T07:20:19;12.45;;;11.35;;
27800;SDS011;15181;49.112;11.930;2022-07-30T07:22:46;11.90;;;10.90;;
27800;SDS011;15181;49.112;11.930;2022-07-30T07:25:14;12.23;;;11.23;;
27800;SDS011;15181;49.112;11.930;2022-07-30T07:27:41;11.48;;;10.48;;
27800;SDS011;15181;49.112;11.930;2022-07-30T07:30:08;11.57;;;10.38;;
27800;SDS011;15181;49.112;11.930;2022-07-30T07:32:35;10.13;;;9.23;;
27800;SDS011;15181;49.112;11.930;2022-07-30T07:35:02;10.77;;;9.85;;
27800;SDS011;15181;49.112;11.930;2022-07-30T07:37:29;10.25;;;9.45;;
27800;SDS011;15181;49.112;11.930;2022-07-30T07:39:57;10.68;;;9.75;;
27800;SDS011;15181;49.112;11.930;2022-07-30T07:42:26;10.75;;;9.75;;
27800;SDS011;15181;49.112;11.930;2022-07-30T07:44:52;9.55;;;8.63;;
27800;SDS011;15181;49.112;11.930;2022-07-30T07:47:19;9.25;;;8.48;;
27800;SDS011;15181;49.112;11.930;2022-07-30T07:49:46;8.98;;;8.18;;
27800;SDS011;15181;49.112;11.930;2022-07-30T07:52:13;9.63;;;8.52;;
27800;SDS011;15181;49.112;11.930;2022-07-30T07:54:40;10.27;;;9.40;;
27800;SDS011;15181;49.112;11.930;2022-07-30T07:57:07;10.40;;;9.43;;
27800;SDS011;15181;49.112;11.930;2022-07-30T07:59:36;10.63;;;9.65;;
27800;SDS011;15181;49.112;11.930;2022-07-30T08:02:03;9.90;;;9.00;;
27800;SDS011;15181;49.112;11.930;2022-07-30T08:04:30;9.98;;;9.07;;
27800;SDS011;15181;49.112;11.930;2022-07-30T08:06:57;10.07;;;9.27;;
27800;SDS011;15181;49.112;11.930;2022-07-30T08:09:24;11.27;;;10.18;;
27800;SDS011;15181;49.112;11.930;2022-07-30T08:11:53;10.90;;;10.00;;
27800;SDS011;15181;49.112;11.930;2022-07-30T08:14:23;10.20;;;9.30;;
27800;SDS011;15181;49.112;11.930;2022-07-30T08:16:52;10.07;;;9.18;;
27800;SDS011;15181;49.112;11.930;2022-07-30T08:19:19;9.85;;;9.05;;
27800;SDS011;15181;49.112;11.930;2022-07-30T08:21:47;11.23;;;10.23;;
27800;SDS011;15181;49.112;11.930;2022-07-30T08:24:14;9.98;;;9.07;;
27800;SDS011;15181;49.112;11.930;2022-07-30T08:26:41;9.50;;;8.70;;
27800;SDS011;15181;49.112;11.930;2022-07-30T08:29:12;9.18;;;8.38;;
27800;SDS011;15181;49.112;11.930;2022-07-30T08:31:39;10.05;;;9.05;;
27800;SDS011;15181;49.112;11.930;2022-07-30T08:34:09;10.95;;;9.95;;
27800;SDS011;15181;49.112;11.930;2022-07-30T08:36:37;10.27;;;9.25;;
27800;SDS011;15181;49.112;11.930;2022-07-30T08:39:04;9.00;;;8.20;;
27800;SDS011;15181;49.112;11.930;2022-07-30T08:41:32;9.75;;;8.75;;
27800;SDS011;15181;49.112;11.930;2022-07-30T08:44:01;9.55;;;8.75;;
27800;SDS011;15181;49.112;11.930;2022-07-30T08:46:30;9.43;;;8.52;;
27800;SDS011;15181;49.112;11.930;2022-07-30T08:48:59;9.57;;;8.68;;
27800;SDS011;15181;49.112;11.930;2022-07-30T08:51:38;9.95;;;8.95;;
27800;SDS011;15181;49.112;11.930;2022-07-30T08:54:05;10.13;;;9.23;;
27800;SDS011;15181;49.112;11.930;2022-07-30T08:56:33;15.23;;;8.93;;
27800;SDS011;15181;49.112;11.930;2022-07-30T08:59:00;10.02;;;9.23;;
27800;SDS011;15181;49.112;11.930;2022-07-30T09:01:27;10.20;;;9.27;;
27800;SDS011;15181;49.112;11.930;2022-07-30T09:03:54;9.88;;;8.88;;
27800;SDS011;15181;49.112;11.930;2022-07-30T09:06:21;9.15;;;8.38;;
27800;SDS011;15181;49.112;11.930;2022-07-30T09:08:50;9.35;;;8.52;;
27800;SDS011;15181;49.112;11.930;2022-07-30T09:11:18;9.15;;;8.25;;
27800;SDS011;15181;49.112;11.930;2022-07-30T09:13:46;9.40;;;8.60;;
27800;SDS011;15181;49.112;11.930;2022-07-30T09:16:18;9.55;;;8.65;;
27800;SDS011;15181;49.112;11.930;2022-07-30T09:18:46;9.98;;;9.07;;
27800;SDS011;15181;49.112;11.930;2022-07-30T09:21:14;9.18;;;8.48;;
27800;SDS011;15181;49.112;11.930;2022-07-30T09:26:28;9.93;;;9.00;;
27800;SDS011;15181;49.112;11.930;2022-07-30T09:31:51;10.65;;;9.65;;
27800;SDS011;15181;49.112;11.930;2022-07-30T09:34:24;9.93;;;9.13;;
27800;SDS011;15181;49.112;11.930;2022-07-30T09:36:53;9.70;;;8.82;;
27800;SDS011;15181;49.112;11.930;2022-07-30T09:39:30;9.32;;;8.52;;
27800;SDS011;15181;49.112;11.930;2022-07-30T09:42:00;9.45;;;8.65;;
27800;SDS011;15181;49.112;11.930;2022-07-30T09:44:29;9.77;;;8.88;;
27800;SDS011;15181;49.112;11.930;2022-07-30T09:46:57;9.55;;;8.70;;
27800;SDS011;15181;49.112;11.930;2022-07-30T09:49:27;8.63;;;7.93;;
27800;SDS011;15181;49.112;11.930;2022-07-30T09:51:55;8.65;;;7.80;;
27800;SDS011;15181;49.112;11.930;2022-07-30T09:54:23;8.73;;;7.82;;
27800;SDS011;15181;49.112;11.930;2022-07-30T09:57:03;9.73;;;8.93;;
27800;SDS011;15181;49.112;11.930;2022-07-30T09:59:33;8.73;;;7.70;;
27800;SDS011;15181;49.112;11.930;2022-07-30T10:02:00;8.40;;;7.70;;
27800;SDS011;15181;49.112;11.930;2022-07-30T10:04:28;8.20;;;7.50;;
27800;SDS011;15181;49.112;11.930;2022-07-30T10:06:57;8.25;;;7.18;;
27800;SDS011;15181;49.112;11.930;2022-07-30T10:09:26;9.40;;;8.10;;
27800;SDS011;15181;49.112;11.930;2022-07-30T10:11:54;7.75;;;7.15;;
27800;SDS011;15181;49.112;11.930;2022-07-30T10:14:24;8.43;;;7.75;;
27800;SDS011;15181;49.112;11.930;2022-07-30T10:16:54;8.75;;;7.95;;
27800;SDS011;15181;49.112;11.930;2022-07-30T10:19:22;8.63;;;7.45;;
27800;SDS011;15181;49.112;11.930;2022-07-30T10:21:50;7.63;;;7.03;;
27800;SDS011;15181;49.112;11.930;2022-07-30T10:24:21;16.15;;;7.85;;
27800;SDS011;15181;49.112;11.930;2022-07-30T10:26:49;7.95;;;7.25;;
27800;SDS011;15181;49.112;11.930;2022-07-30T10:29:18;7.60;;;7.00;;
27800;SDS011;15181;49.112;11.930;2022-07-30T10:31:51;8.18;;;7.38;;
27800;SDS011;15181;49.112;11.930;2022-07-30T10:34:18;7.05;;;6.53;;
27800;SDS011;15181;49.112;11.930;2022-07-30T10:36:50;7.90;;;7.20;;
27800;SDS011;15181;49.112;11.930;2022-07-30T10:39:23;8.27;;;7.47;;
27800;SDS011;15181;49.112;11.930;2022-07-30T10:41:55;7.47;;;6.80;;
27800;SDS011;15181;49.112;11.930;2022-07-30T10:44:39;7.53;;;6.68;;
27800;SDS011;15181;49.112;11.930;2022-07-30T10:47:18;7.82;;;7.13;;
27800;SDS011;15181;49.112;11.930;2022-07-30T10:52:46;7.57;;;6.88;;
27800;SDS011;15181;49.112;11.930;2022-07-30T10:55:19;6.70;;;6.20;;
27800;SDS011;15181;49.112;11.930;2022-07-30T10:57:58;6.78;;;6.28;;
27800;SDS011;15181;49.112;11.930;2022-07-30T11:00:28;6.45;;;5.90;;
27800;SDS011;15181;49.112;11.930;2022-07-30T11:08:54;6.35;;;5.85;;
27800;SDS011;15181;49.112;11.930;2022-07-30T11:14:09;6.90;;;6.30;;
27800;SDS011;15181;49.112;11.930;2022-07-30T11:16:57;6.15;;;5.65;;
27800;SDS011;15181;49.112;11.930;2022-07-30T11:19:30;6.60;;;6.10;;
27800;SDS011;15181;49.112;11.930;2022-07-30T11:25:03;6.68;;;6.00;;
27800;SDS011;15181;49.112;11.930;2022-07-30T11:27:34;6.35;;;5.75;;
27800;SDS011;15181;49.112;11.930;2022-07-30T11:30:30;6.18;;;5.65;;
27800;SDS011;15181;49.112;11.930;2022-07-30T11:36:06;6.25;;;5.65;;
27800;SDS011;15181;49.112;11.930;2022-07-30T11:41:32;11.38;;;5.95;;
27800;SDS011;15181;49.112;11.930;2022-07-30T11:47:01;6.80;;;6.20;;
27800;SDS011;15181;49.112;11.930;2022-07-30T11:49:34;6.60;;;5.97;;
27800;SDS011;15181;49.112;11.930;2022-07-30T11:52:04;6.38;;;5.88;;
27800;SDS011;15181;49.112;11.930;2022-07-30T11:54:32;6.88;;;6.28;;
27800;SDS011;15181;49.112;11.930;2022-07-30T11:56:59;6.50;;;6.00;;
27800;SDS011;15181;49.112;11.930;2022-07-30T11:59:26;6.57;;;5.97;;
27800;SDS011;15181;49.112;11.930;2022-07-30T12:01:54;6.00;;;5.50;;
27800;SDS011;15181;49.112;11.930;2022-07-30T12:04:26;6.35;;;5.75;;
27800;SDS011;15181;49.112;11.930;2022-07-30T12:06:59;6.53;;;5.93;;
27800;SDS011;15181;49.112;11.930;2022-07-30T12:09:31;6.60;;;6.10;;
27800;SDS011;15181;49.112;11.930;2022-07-30T12:11:59;6.43;;;5.93;;
27800;SDS011;15181;49.112;11.930;2022-07-30T12:14:35;6.30;;;5.80;;
27800;SDS011;15181;49.112;11.930;2022-07-30T12:17:03;6.43;;;5.93;;
27800;SDS011;15181;49.112;11.930;2022-07-30T12:19:41;6.50;;;6.00;;
27800;SDS011;15181;49.112;11.930;2022-07-30T12:22:14;7.50;;;6.80;;
27800;SDS011;15181;49.112;11.930;2022-07-30T12:24:42;6.88;;;6.28;;
27800;SDS011;15181;49.112;11.930;2022-07-30T12:27:09;6.65;;;6.05;;
27800;SDS011;15181;49.112;11.930;2022-07-30T12:29:39;6.75;;;6.20;;
27800;SDS011;15181;49.112;11.930;2022-07-30T12:32:10;7.18;;;6.50;;
27800;SDS011;15181;49.112;11.930;2022-07-30T12:34:43;6.80;;;6.30;;
27800;SDS011;15181;49.112;11.930;2022-07-30T12:37:21;7.20;;;6.60;;
27800;SDS011;15181;49.112;11.930;2022-07-30T12:39:50;7.25;;;6.65;;
27800;SDS011;15181;49.112;11.930;2022-07-30T12:42:31;7.13;;;6.63;;
27800;SDS011;15181;49.112;11.930;2022-07-30T12:44:59;6.93;;;6.43;;
27800;SDS011;15181;49.112;11.930;2022-07-30T12:47:33;7.13;;;6.60;;
27800;SDS011;15181;49.112;11.930;2022-07-30T12:50:15;6.97;;;6.30;;
27800;SDS011;15181;49.112;11.930;2022-07-30T12:52:46;6.75;;;6.15;;
27800;SDS011;15181;49.112;11.930;2022-07-30T12:55:18;7.00;;;6.30;;
27800;SDS011;15181;49.112;11.930;2022-07-30T12:58:02;7.38;;;6.68;;
27800;SDS011;15181;49.112;11.930;2022-07-30T13:00:45;8.02;;;7.35;;
27800;SDS011;15181;49.112;11.930;2022-07-30T13:05:52;6.68;;;6.07;;
27800;SDS011;15181;49.112;11.930;2022-07-30T13:08:24;7.93;;;6.30;;
27800;SDS011;15181;49.112;11.930;2022-07-30T13:11:13;6.90;;;6.30;;
27800;SDS011;15181;49.112;11.930;2022-07-30T13:13:41;6.63;;;5.90;;
27800;SDS011;15181;49.112;11.930;2022-07-30T13:16:12;6.95;;;6.35;;
27800;SDS011;15181;49.112;11.930;2022-07-30T13:19:04;7.05;;;6.43;;
27800;SDS011;15181;49.112;11.930;2022-07-30T13:21:43;7.25;;;6.38;;
27800;SDS011;15181;49.112;11.930;2022-07-30T13:24:20;7.53;;;6.32;;
27800;SDS011;15181;49.112;11.930;2022-07-30T13:27:00;6.93;;;6.22;;
27800;SDS011;15181;49.112;11.930;2022-07-30T13:29:49;7.22;;;6.63;;
27800;SDS011;15181;49.112;11.930;2022-07-30T13:32:31;9.18;;;6.60;;
27800;SDS011;15181;49.112;11.930;2022-07-30T13:35:05;8.37;;;6.93;;
27800;SDS011;15181;49.112;11.930;2022-07-30T13:37:35;8.48;;;7.00;;
27800;SDS011;15181;49.112;11.930;2022-07-30T13:40:08;7.30;;;6.60;;
27800;SDS011;15181;49.112;11.930;2022-07-30T13:42:49;7.03;;;6.43;;
27800;SDS011;15181;49.112;11.930;2022-07-30T13:45:29;6.90;;;6.15;;
27800;SDS011;15181;49.112;11.930;2022-07-30T13:48:04;6.95;;;6.45;;
27800;SDS011;15181;49.112;11.930;2022-07-30T13:50:42;7.10;;;6.50;;
27800;SDS011;15181;49.112;11.930;2022-07-30T13:53:25;6.88;;;6.28;;
27800;SDS011;15181;49.112;11.930;2022-07-30T13:56:15;7.40;;;6.72;;
27800;SDS011;15181;49.112;11.930;2022-07-30T13:58:56;7.18;;;6.47;;
27800;SDS011;15181;49.112;11.930;2022-07-30T14:01:29;7.30;;;6.70;;
27800;SDS011;15181;49.112;11.930;2022-07-30T14:04:07;6.97;;;6.38;;
27800;SDS011;15181;49.112;11.930;2022-07-30T14:06:38;7.07;;;6.38;;
27800;SDS011;15181;49.112;11.930;2022-07-30T14:09:16;6.65;;;6.15;;
27800;SDS011;15181;49.112;11.930;2022-07-30T14:11:54;7.55;;;6.80;;
27800;SDS011;15181;49.112;11.930;2022-07-30T14:14:32;7.03;;;6.43;;
27800;SDS011;15181;49.112;11.930;2022-07-30T14:17:20;7.40;;;6.72;;
27800;SDS011;15181;49.112;11.930;2022-07-30T14:20:06;7.35;;;6.65;;
27800;SDS011;15181;49.112;11.930;2022-07-30T14:23:15;7.15;;;6.57;;
27800;SDS011;15181;49.112;11.930;2022-07-30T14:26:23;7.70;;;7.00;;
27800;SDS011;15181;49.112;11.930;2022-07-30T14:29:05;7.18;;;6.47;;
27800;SDS011;15181;49.112;11.930;2022-07-30T14:31:42;6.75;;;6.25;;
27800;SDS011;15181;49.112;11.930;2022-07-30T14:34:19;7.20;;;6.60;;
27800;SDS011;15181;49.112;11.930;2022-07-30T14:36:55;6.32;;;5.80;;
27800;SDS011;15181;49.112;11.930;2022-07-30T14:39:36;6.50;;;6.00;;
27800;SDS011;15181;49.112;11.930;2022-07-30T14:42:09;6.80;;;6.10;;
27800;SDS011;15181;49.112;11.930;2022-07-30T14:44:57;6.85;;;6.25;;
27800;SDS011;15181;49.112;11.930;2022-07-30T14:47:38;6.88;;;6.20;;
27800;SDS011;15181;49.112;11.930;2022-07-30T14:50:20;6.53;;;5.90;;
27800;SDS011;15181;49.112;11.930;2022-07-30T14:52:58;7.13;;;5.90;;
27800;SDS011;15181;49.112;11.930;2022-07-30T14:55:53;6.53;;;5.90;;
27800;SDS011;15181;49.112;11.930;2022-07-30T14:58:45;6.03;;;5.45;;
27800;SDS011;15181;49.112;11.930;2022-07-30T15:01:43;7.85;;;5.80;;
27800;SDS011;15181;49.112;11.930;2022-07-30T15:07:14;6.75;;;6.05;;
27800;SDS011;15181;49.112;11.930;2022-07-30T15:09:44;6.70;;;6.10;;
27800;SDS011;15181;49.112;11.930;2022-07-30T15:12:17;7.18;;;6.00;;
27800;SDS011;15181;49.112;11.930;2022-07-30T15:14:47;7.90;;;6.10;;
27800;SDS011;15181;49.112;11.930;2022-07-30T15:17:25;6.90;;;6.30;;
27800;SDS011;15181;49.112;11.930;2022-07-30T15:19:54;7.30;;;6.60;;